createdAt,value
2019-01-09T00:00:41.024Z,18.46
2019-01-09T00:01:40.995Z,18.50
2019-01-09T00:02:40.982Z,18.47
2019-01-09T00:03:40.995Z,18.51
2019-01-09T00:04:40.969Z,18.50
2019-01-09T00:05:40.974Z,18.51
2019-01-09T00:06:40.959Z,18.50
2019-01-09T00:07:40.942Z,18.50
2019-01-09T00:08:40.936Z,18.46
2019-01-09T00:09:40.915Z,18.50
2019-01-09T00:10:40.921Z,18.50
2019-01-09T00:11:40.896Z,18.47
2019-01-09T00:12:40.944Z,18.50
2019-01-09T00:13:40.875Z,18.49
2019-01-09T00:14:40.859Z,18.50
2019-01-09T00:15:40.861Z,18.49
2019-01-09T00:16:40.842Z,18.44
2019-01-09T00:17:40.834Z,18.49
2019-01-09T00:18:40.843Z,18.46
2019-01-09T00:19:40.818Z,18.47
2019-01-09T00:20:40.832Z,18.50
2019-01-09T00:21:40.815Z,18.50
2019-01-09T00:22:40.779Z,18.47
2019-01-09T00:23:40.754Z,18.46
2019-01-09T00:24:40.746Z,18.50
2019-01-09T00:25:40.807Z,18.41
2019-01-09T00:26:40.726Z,18.47
2019-01-09T00:27:40.753Z,18.41
2019-01-09T00:28:40.710Z,18.46
2019-01-09T00:29:40.694Z,18.46
2019-01-09T00:30:40.699Z,18.41
2019-01-09T00:31:40.678Z,18.39
2019-01-09T00:32:40.665Z,18.50
2019-01-09T00:33:40.645Z,18.42
2019-01-09T00:34:40.639Z,18.39
2019-01-09T00:35:40.632Z,18.47
2019-01-09T00:36:40.619Z,18.39
2019-01-09T00:37:40.599Z,18.44
2019-01-09T00:38:40.814Z,18.46
2019-01-09T00:39:40.570Z,18.53
2019-01-09T00:40:40.586Z,18.49
2019-01-09T00:41:40.559Z,18.51
2019-01-09T00:42:40.994Z,18.41
2019-01-09T00:43:40.574Z,18.46
2019-01-09T00:44:40.530Z,18.46
2019-01-09T00:45:40.528Z,18.49
2019-01-09T00:46:40.557Z,18.42
2019-01-09T00:47:40.487Z,18.49
2019-01-09T00:48:40.512Z,18.49
2019-01-09T00:49:40.495Z,18.47
2019-01-09T00:50:40.472Z,18.46
2019-01-09T00:51:40.467Z,18.42
2019-01-09T00:52:40.438Z,18.41
2019-01-09T00:53:41.246Z,18.49
2019-01-09T00:54:40.412Z,18.49
2019-01-09T00:55:40.412Z,18.51
2019-01-09T00:56:40.393Z,18.44
2019-01-09T00:57:40.407Z,18.47
2019-01-09T00:58:40.368Z,18.44
2019-01-09T00:59:40.359Z,18.44
2019-01-09T01:00:40.364Z,18.50
2019-01-09T01:01:40.349Z,18.50
2019-01-09T01:02:40.333Z,18.44
2019-01-09T01:03:40.343Z,18.51
2019-01-09T01:04:40.297Z,18.50
2019-01-09T01:05:46.101Z,18.46
2019-01-09T01:06:40.283Z,18.50
2019-01-09T01:07:40.269Z,18.46
2019-01-09T01:08:40.270Z,18.46
2019-01-09T01:09:40.269Z,18.47
2019-01-09T01:10:40.254Z,18.49
2019-01-09T01:11:40.227Z,18.51
2019-01-09T01:12:40.221Z,18.44
2019-01-09T01:13:40.199Z,18.47
2019-01-09T01:14:40.209Z,18.44
2019-01-09T01:15:40.214Z,18.46
2019-01-09T01:16:40.184Z,18.44
2019-01-09T01:17:40.162Z,18.46
2019-01-09T01:18:40.152Z,18.47
2019-01-09T01:19:40.134Z,18.46
2019-01-09T01:20:40.420Z,18.49
2019-01-09T01:21:40.124Z,18.49
2019-01-09T01:22:40.117Z,18.49
2019-01-09T01:23:40.096Z,18.50
2019-01-09T01:24:40.139Z,18.47
2019-01-09T01:25:40.111Z,18.46
2019-01-09T01:26:40.076Z,18.41
2019-01-09T01:27:40.050Z,18.42
2019-01-09T01:28:40.043Z,18.44
2019-01-09T01:29:40.039Z,18.41
2019-01-09T01:30:40.072Z,18.46
2019-01-09T01:31:40.197Z,18.46
2019-01-09T01:32:40.002Z,18.47
2019-01-09T01:33:39.980Z,18.39
2019-01-09T01:34:40.087Z,18.41
2019-01-09T01:35:39.972Z,18.41
2019-01-09T01:36:39.966Z,18.41
2019-01-09T01:37:39.946Z,18.39
2019-01-09T01:38:39.976Z,18.36
2019-01-09T01:39:39.912Z,18.32
2019-01-09T01:40:39.912Z,18.36
2019-01-09T01:41:39.899Z,18.36
2019-01-09T01:42:39.886Z,18.42
2019-01-09T01:43:39.916Z,18.31
2019-01-09T01:44:39.856Z,18.41
2019-01-09T01:45:39.858Z,18.38
2019-01-09T01:46:39.863Z,18.38
2019-01-09T01:47:39.840Z,18.41
2019-01-09T01:48:39.830Z,18.38
2019-01-09T01:49:40.003Z,18.36
2019-01-09T01:50:39.801Z,18.35
2019-01-09T01:51:39.798Z,18.38
2019-01-09T01:52:39.772Z,18.38
2019-01-09T01:53:39.769Z,18.41
2019-01-09T01:54:39.763Z,18.32
2019-01-09T01:55:39.740Z,18.44
2019-01-09T01:56:39.765Z,18.41
2019-01-09T01:57:39.723Z,18.39
2019-01-09T01:58:39.718Z,18.50
2019-01-09T01:59:39.693Z,18.44
2019-01-09T02:00:40.427Z,18.47
2019-01-09T02:01:39.704Z,18.41
2019-01-09T02:02:39.706Z,18.38
2019-01-09T02:03:39.655Z,18.34
2019-01-09T02:04:39.697Z,18.44
2019-01-09T02:05:39.633Z,18.39
2019-01-09T02:06:39.689Z,18.46
2019-01-09T02:07:39.638Z,18.41
2019-01-09T02:08:39.603Z,18.38
2019-01-09T02:09:39.610Z,18.32
2019-01-09T02:10:39.586Z,18.39
2019-01-09T02:11:39.585Z,18.35
2019-01-09T02:12:39.602Z,18.38
2019-01-09T02:13:39.565Z,18.31
2019-01-09T02:14:39.542Z,18.31
2019-01-09T02:15:39.527Z,18.31
2019-01-09T02:16:39.528Z,18.34
2019-01-09T02:17:39.549Z,18.31
2019-01-09T02:18:39.489Z,18.29
2019-01-09T02:19:39.475Z,18.35
2019-01-09T02:20:39.471Z,18.31
2019-01-09T02:21:39.469Z,18.36
2019-01-09T02:22:39.466Z,18.34
2019-01-09T02:23:39.439Z,18.34
2019-01-09T02:24:39.435Z,18.34
2019-01-09T02:25:39.426Z,18.38
2019-01-09T02:26:39.459Z,18.35
2019-01-09T02:27:39.435Z,18.35
2019-01-09T02:28:39.390Z,18.35
2019-01-09T02:29:39.366Z,18.34
2019-01-09T02:30:39.359Z,18.35
2019-01-09T02:31:39.362Z,18.31
2019-01-09T02:32:39.352Z,18.35
2019-01-09T02:33:39.364Z,18.31
2019-01-09T02:34:39.316Z,18.36
2019-01-09T02:35:39.317Z,18.35
2019-01-09T02:36:39.303Z,18.38
2019-01-09T02:37:39.278Z,18.35
2019-01-09T02:38:39.309Z,18.36
2019-01-09T02:39:39.272Z,18.28
2019-01-09T02:40:39.251Z,18.39
2019-01-09T02:41:39.272Z,18.34
2019-01-09T02:42:39.239Z,18.32
2019-01-09T02:43:39.209Z,18.28
2019-01-09T02:44:39.204Z,18.35
2019-01-09T02:45:39.203Z,18.36
2019-01-09T02:46:39.198Z,18.38
2019-01-09T02:47:39.174Z,18.32
2019-01-09T02:48:39.184Z,18.36
2019-01-09T02:49:39.165Z,18.38
2019-01-09T02:50:39.142Z,18.35
2019-01-09T02:51:39.648Z,18.35
2019-01-09T02:52:40.306Z,18.31
2019-01-09T02:53:39.451Z,18.36
2019-01-09T02:54:39.307Z,18.36
2019-01-09T02:55:39.640Z,18.36
2019-01-09T02:56:39.100Z,18.38
2019-01-09T02:57:39.662Z,18.39
2019-01-09T02:58:39.053Z,18.34
2019-01-09T02:59:39.065Z,18.28
2019-01-09T03:00:39.070Z,18.29
2019-01-09T03:01:39.064Z,18.32
2019-01-09T03:02:39.007Z,18.29
2019-01-09T03:03:39.002Z,18.35
2019-01-09T03:04:38.997Z,18.36
2019-01-09T03:05:38.978Z,18.35
2019-01-09T03:06:39.026Z,18.34
2019-01-09T03:07:38.980Z,18.41
2019-01-09T03:08:38.948Z,18.32
2019-01-09T03:09:38.937Z,18.44
2019-01-09T03:10:38.919Z,18.38
2019-01-09T03:11:38.939Z,18.44
2019-01-09T03:12:38.914Z,18.39
2019-01-09T03:13:38.889Z,18.41
2019-01-09T03:14:38.879Z,18.39
2019-01-09T03:15:38.872Z,18.38
2019-01-09T03:16:38.864Z,18.29
2019-01-09T03:17:38.847Z,18.35
2019-01-09T03:18:38.836Z,18.36
2019-01-09T03:19:38.831Z,18.31
2019-01-09T03:20:38.812Z,18.34
2019-01-09T03:21:38.857Z,18.29
2019-01-09T03:22:38.797Z,18.39
2019-01-09T03:23:38.783Z,18.31
2019-01-09T03:24:38.787Z,18.38
2019-01-09T03:25:38.764Z,18.38
2019-01-09T03:26:39.073Z,18.31
2019-01-09T03:27:38.732Z,18.36
2019-01-09T03:28:38.723Z,18.35
2019-01-09T03:29:38.715Z,18.34
2019-01-09T03:30:38.713Z,18.34
2019-01-09T03:31:38.979Z,18.41
2019-01-09T03:32:38.684Z,18.38
2019-01-09T03:33:38.706Z,18.38
2019-01-09T03:34:38.666Z,18.35
2019-01-09T03:35:38.664Z,18.36
2019-01-09T03:36:38.648Z,18.35
2019-01-09T03:37:38.632Z,18.35
2019-01-09T03:38:38.661Z,18.32
2019-01-09T03:39:38.843Z,18.31
2019-01-09T03:40:38.601Z,18.35
2019-01-09T03:41:38.624Z,18.35
2019-01-09T03:42:38.596Z,18.29
2019-01-09T03:43:38.565Z,18.34
2019-01-09T03:44:38.551Z,18.38
2019-01-09T03:45:38.542Z,18.32
2019-01-09T03:46:38.525Z,18.36
2019-01-09T03:47:38.541Z,18.35
2019-01-09T03:48:38.522Z,18.35
2019-01-09T03:49:38.528Z,18.35
2019-01-09T03:50:38.493Z,18.32
2019-01-09T03:51:38.478Z,18.31
2019-01-09T03:52:38.479Z,18.36
2019-01-09T03:53:38.454Z,18.34
2019-01-09T03:54:38.458Z,18.35
2019-01-09T03:55:38.435Z,18.39
2019-01-09T03:56:38.426Z,18.32
2019-01-09T03:57:38.424Z,18.38
2019-01-09T03:58:38.408Z,18.31
2019-01-09T03:59:38.468Z,18.32
2019-01-09T04:00:38.373Z,18.31
2019-01-09T04:01:38.361Z,18.41
2019-01-09T04:02:38.374Z,18.36
2019-01-09T04:03:38.350Z,18.38
2019-01-09T04:04:38.338Z,18.28
2019-01-09T04:05:43.423Z,18.31
2019-01-09T04:06:41.953Z,18.36
2019-01-09T04:07:38.322Z,18.38
2019-01-09T04:08:38.303Z,18.32
2019-01-09T04:09:38.282Z,18.35
2019-01-09T04:10:38.315Z,18.35
2019-01-09T04:11:38.259Z,18.34
2019-01-09T04:12:38.277Z,18.35
2019-01-09T04:13:38.244Z,18.36
2019-01-09T04:14:38.225Z,18.44
2019-01-09T04:15:38.227Z,18.28
2019-01-09T04:16:38.200Z,18.35
2019-01-09T04:17:38.205Z,18.34
2019-01-09T04:18:38.183Z,18.28
2019-01-09T04:19:38.210Z,18.32
2019-01-09T04:20:38.174Z,18.36
2019-01-09T04:21:38.150Z,18.25
2019-01-09T04:22:38.152Z,18.36
2019-01-09T04:23:38.132Z,18.31
2019-01-09T04:24:38.114Z,18.35
2019-01-09T04:25:38.097Z,18.35
2019-01-09T04:26:38.096Z,18.34
2019-01-09T04:27:38.108Z,18.26
2019-01-09T04:28:38.086Z,18.38
2019-01-09T04:29:38.060Z,18.32
2019-01-09T04:30:38.055Z,18.29
2019-01-09T04:31:38.030Z,18.38
2019-01-09T04:32:38.052Z,18.36
2019-01-09T04:33:38.025Z,18.32
2019-01-09T04:34:38.098Z,18.38
2019-01-09T04:35:38.147Z,18.34
2019-01-09T04:36:37.999Z,18.35
2019-01-09T04:37:37.986Z,18.31
2019-01-09T04:38:37.974Z,18.32
2019-01-09T04:39:37.962Z,18.31
2019-01-09T04:40:37.943Z,18.31
2019-01-09T04:41:37.934Z,18.32
2019-01-09T04:42:37.954Z,18.26
2019-01-09T04:43:37.925Z,18.21
2019-01-09T04:44:37.921Z,18.36
2019-01-09T04:45:37.884Z,18.35
2019-01-09T04:46:37.874Z,18.34
2019-01-09T04:47:37.900Z,18.38
2019-01-09T04:48:37.851Z,18.29
2019-01-09T04:49:37.845Z,18.29
2019-01-09T04:50:37.841Z,18.32
2019-01-09T04:51:37.923Z,18.34
2019-01-09T04:52:37.837Z,18.26
2019-01-09T04:53:37.811Z,18.32
2019-01-09T04:54:37.799Z,18.29
2019-01-09T04:55:37.775Z,18.34
2019-01-09T04:56:37.774Z,18.36
2019-01-09T04:57:37.765Z,18.28
2019-01-09T04:58:37.759Z,18.35
2019-01-09T04:59:37.731Z,18.38
2019-01-09T05:00:37.722Z,18.32
2019-01-09T05:01:37.732Z,18.29
2019-01-09T05:02:37.713Z,18.36
2019-01-09T05:03:37.762Z,18.32
2019-01-09T05:04:37.678Z,18.28
2019-01-09T05:05:37.725Z,18.31
2019-01-09T05:06:37.675Z,18.32
2019-01-09T05:07:37.649Z,18.32
2019-01-09T05:08:37.734Z,18.23
2019-01-09T05:09:37.621Z,18.26
2019-01-09T05:10:37.619Z,18.34
2019-01-09T05:11:37.601Z,18.32
2019-01-09T05:12:37.593Z,18.36
2019-01-09T05:13:37.600Z,18.29
2019-01-09T05:14:37.664Z,18.35
2019-01-09T05:15:37.604Z,18.31
2019-01-09T05:16:37.561Z,18.34
2019-01-09T05:17:37.579Z,18.42
2019-01-09T05:18:37.559Z,18.38
2019-01-09T05:19:37.517Z,18.31
2019-01-09T05:20:37.509Z,18.28
2019-01-09T05:21:37.549Z,18.39
2019-01-09T05:22:37.488Z,18.39
2019-01-09T05:23:37.483Z,18.38
2019-01-09T05:24:37.474Z,18.38
2019-01-09T05:25:37.467Z,18.36
2019-01-09T05:26:37.452Z,18.31
2019-01-09T05:27:37.438Z,18.29
2019-01-09T05:28:37.428Z,18.34
2019-01-09T05:29:37.406Z,18.34
2019-01-09T05:30:37.430Z,18.29
2019-01-09T05:31:37.378Z,18.38
2019-01-09T05:32:37.469Z,18.34
2019-01-09T05:33:37.418Z,18.36
2019-01-09T05:34:37.355Z,18.35
2019-01-09T05:35:37.334Z,18.38
2019-01-09T05:36:37.335Z,18.35
2019-01-09T05:37:37.350Z,18.32
2019-01-09T05:38:38.493Z,18.35
2019-01-09T05:39:39.832Z,18.28
2019-01-09T05:40:37.335Z,18.31
2019-01-09T05:41:37.269Z,18.28
2019-01-09T05:42:37.263Z,18.29
2019-01-09T05:43:37.331Z,18.32
2019-01-09T05:44:37.259Z,18.31
2019-01-09T05:45:37.294Z,18.26
2019-01-09T05:46:37.229Z,18.29
2019-01-09T05:47:37.232Z,18.32
2019-01-09T05:48:37.228Z,18.36
2019-01-09T05:49:37.273Z,18.29
2019-01-09T05:50:37.189Z,18.31
2019-01-09T05:51:37.169Z,18.29
2019-01-09T05:52:37.155Z,18.31
2019-01-09T05:53:37.151Z,18.32
2019-01-09T05:54:37.174Z,18.36
2019-01-09T05:55:37.168Z,18.35
2019-01-09T05:56:37.119Z,18.19
2019-01-09T05:57:37.115Z,18.25
2019-01-09T05:58:37.092Z,18.28
2019-01-09T05:59:37.093Z,18.32
2019-01-09T06:00:37.071Z,18.35
2019-01-09T06:01:37.065Z,18.35
2019-01-09T06:02:37.053Z,18.29
2019-01-09T06:03:37.062Z,18.29
2019-01-09T06:04:37.057Z,18.29
2019-01-09T06:05:37.016Z,18.26
2019-01-09T06:06:37.025Z,18.16
2019-01-09T06:07:36.984Z,18.04
2019-01-09T06:08:37.029Z,18.05
2019-01-09T06:09:36.991Z,17.96
2019-01-09T06:10:36.971Z,17.92
2019-01-09T06:11:36.958Z,17.87
2019-01-09T06:12:38.283Z,17.89
2019-01-09T06:13:37.011Z,17.89
2019-01-09T06:14:36.941Z,17.89
2019-01-09T06:15:36.925Z,17.89
2019-01-09T06:16:36.889Z,17.76
2019-01-09T06:17:36.882Z,17.87
2019-01-09T06:18:36.969Z,17.79
2019-01-09T06:19:37.627Z,17.86
2019-01-09T06:20:36.857Z,17.84
2019-01-09T06:21:36.829Z,17.87
2019-01-09T06:22:36.829Z,17.84
2019-01-09T06:23:36.810Z,17.92
2019-01-09T06:24:36.814Z,17.89
2019-01-09T06:25:36.802Z,17.91
2019-01-09T06:26:36.822Z,17.89
2019-01-09T06:27:36.770Z,17.92
2019-01-09T06:28:36.824Z,18.05
2019-01-09T06:29:36.761Z,17.92
2019-01-09T06:30:36.988Z,17.92
2019-01-09T06:31:36.834Z,17.92
2019-01-09T06:32:36.789Z,17.96
2019-01-09T06:33:36.739Z,17.99
2019-01-09T06:34:36.781Z,17.96
2019-01-09T06:35:36.747Z,18.01
2019-01-09T06:36:37.861Z,17.96
2019-01-09T06:37:36.684Z,17.99
2019-01-09T06:38:36.680Z,17.98
2019-01-09T06:39:36.673Z,18.01
2019-01-09T06:40:36.690Z,18.02
2019-01-09T06:41:36.647Z,17.98
2019-01-09T06:42:36.649Z,18.07
2019-01-09T06:43:36.661Z,18.04
2019-01-09T06:44:36.688Z,18.01
2019-01-09T06:45:36.665Z,18.07
2019-01-09T06:46:36.610Z,18.04
2019-01-09T06:47:36.599Z,18.04
2019-01-09T06:48:36.604Z,18.13
2019-01-09T06:49:36.548Z,18.17
2019-01-09T06:50:36.556Z,18.07
2019-01-09T06:51:36.543Z,18.20
2019-01-09T06:52:37.061Z,18.17
2019-01-09T06:53:36.505Z,18.26
2019-01-09T06:54:36.543Z,18.17
2019-01-09T06:55:36.504Z,18.26
2019-01-09T06:56:36.905Z,18.19
2019-01-09T06:57:36.665Z,18.21
2019-01-09T06:58:36.536Z,18.23
2019-01-09T06:59:36.578Z,18.28
2019-01-09T07:00:36.468Z,18.36
2019-01-09T07:01:36.490Z,18.29
2019-01-09T07:02:36.494Z,18.35
2019-01-09T07:03:36.387Z,18.38
2019-01-09T07:04:37.371Z,18.31
2019-01-09T07:05:37.821Z,18.36
2019-01-09T07:06:36.455Z,18.34
2019-01-09T07:07:36.434Z,18.38
2019-01-09T07:08:36.352Z,18.38
2019-01-09T07:09:36.362Z,18.29
2019-01-09T07:10:36.356Z,18.46
2019-01-09T07:11:36.397Z,18.44
2019-01-09T07:12:36.327Z,18.39
2019-01-09T07:13:36.301Z,18.46
2019-01-09T07:14:36.265Z,18.47
2019-01-09T07:15:36.266Z,18.42
2019-01-09T07:16:36.282Z,18.47
2019-01-09T07:17:36.265Z,18.49
2019-01-09T07:18:36.260Z,18.46
2019-01-09T07:19:36.210Z,18.47
2019-01-09T07:20:36.247Z,18.47
2019-01-09T07:21:45.225Z,18.53
2019-01-09T07:22:36.229Z,18.47
2019-01-09T07:23:36.153Z,18.50
2019-01-09T07:24:36.153Z,18.53
2019-01-09T07:25:36.198Z,18.60
2019-01-09T07:26:36.142Z,18.50
2019-01-09T07:27:36.143Z,18.51
2019-01-09T07:28:36.101Z,18.50
2019-01-09T07:29:36.096Z,18.54
2019-01-09T07:30:36.132Z,18.57
2019-01-09T07:31:36.108Z,18.54
2019-01-09T07:32:36.064Z,18.57
2019-01-09T07:33:36.062Z,18.57
2019-01-09T07:34:36.048Z,18.54
2019-01-09T07:35:36.052Z,18.56
2019-01-09T07:36:36.124Z,18.64
2019-01-09T07:37:44.693Z,18.57
2019-01-09T07:38:36.036Z,18.60
2019-01-09T07:39:35.986Z,18.62
2019-01-09T07:40:36.000Z,18.59
2019-01-09T07:41:35.989Z,18.59
2019-01-09T07:42:36.000Z,18.60
2019-01-09T07:43:35.941Z,18.59
2019-01-09T07:44:35.946Z,18.57
2019-01-09T07:45:35.963Z,18.57
2019-01-09T07:46:35.918Z,18.53
2019-01-09T07:47:35.901Z,18.56
2019-01-09T07:48:35.921Z,18.59
2019-01-09T07:49:35.869Z,18.57
2019-01-09T07:50:35.881Z,18.56
2019-01-09T07:51:35.881Z,18.54
2019-01-09T07:52:35.910Z,18.54
2019-01-09T07:53:35.836Z,18.46
2019-01-09T07:54:35.845Z,18.64
2019-01-09T07:55:35.799Z,18.59
2019-01-09T07:56:35.851Z,18.62
2019-01-09T07:57:35.808Z,18.54
2019-01-09T07:58:35.783Z,18.60
2019-01-09T07:59:36.178Z,18.59
2019-01-09T08:00:35.758Z,18.57
2019-01-09T08:01:35.790Z,18.64
2019-01-09T08:02:35.760Z,18.60
2019-01-09T08:03:35.917Z,18.56
2019-01-09T08:04:35.807Z,18.59
2019-01-09T08:05:36.745Z,18.59
2019-01-09T08:06:35.747Z,18.59
2019-01-09T08:07:35.713Z,18.59
2019-01-09T08:08:35.673Z,18.54
2019-01-09T08:09:35.686Z,18.56
2019-01-09T08:10:35.664Z,18.64
2019-01-09T08:11:35.659Z,18.64
2019-01-09T08:12:36.261Z,18.59
2019-01-09T08:13:35.659Z,18.57
2019-01-09T08:14:35.599Z,18.60
2019-01-09T08:15:35.682Z,18.60
2019-01-09T08:16:35.587Z,18.62
2019-01-09T08:17:35.595Z,18.62
2019-01-09T08:18:35.569Z,18.54
2019-01-09T08:19:35.546Z,18.60
2019-01-09T08:20:35.536Z,18.62
2019-01-09T08:21:35.537Z,18.51
2019-01-09T08:22:35.539Z,18.72
2019-01-09T08:23:35.517Z,18.64
2019-01-09T08:24:35.498Z,18.64
2019-01-09T08:25:35.485Z,18.71
2019-01-09T08:26:35.511Z,18.68
2019-01-09T08:27:35.486Z,18.54
2019-01-09T08:28:35.544Z,18.60
2019-01-09T08:29:35.599Z,18.66
2019-01-09T08:30:35.476Z,18.66
2019-01-09T08:31:35.436Z,18.62
2019-01-09T08:32:35.414Z,18.69
2019-01-09T08:33:35.440Z,18.69
2019-01-09T08:34:35.455Z,18.57
2019-01-09T08:35:35.363Z,18.60
2019-01-09T08:36:35.427Z,18.60
2019-01-09T08:37:35.357Z,18.68
2019-01-09T08:38:35.385Z,18.60
2019-01-09T08:39:35.348Z,18.64
2019-01-09T08:40:35.310Z,18.66
2019-01-09T08:41:35.316Z,18.62
2019-01-09T08:42:35.334Z,18.62
2019-01-09T08:43:35.294Z,18.68
2019-01-09T08:44:35.300Z,18.51
2019-01-09T08:45:35.283Z,18.71
2019-01-09T08:46:35.284Z,18.62
2019-01-09T08:47:35.263Z,18.64
2019-01-09T08:48:35.226Z,18.68
2019-01-09T08:49:35.215Z,18.65
2019-01-09T08:50:35.213Z,18.64
2019-01-09T08:51:35.213Z,18.69
2019-01-09T08:52:36.189Z,18.72
2019-01-09T08:53:35.177Z,18.75
2019-01-09T08:54:35.219Z,18.74
2019-01-09T08:55:35.151Z,18.74
2019-01-09T08:56:35.165Z,18.79
2019-01-09T08:57:35.127Z,18.83
2019-01-09T08:58:35.134Z,18.74
2019-01-09T08:59:35.112Z,18.76
2019-01-09T09:00:35.146Z,18.76
2019-01-09T09:01:35.118Z,18.74
2019-01-09T09:02:35.087Z,18.83
2019-01-09T09:03:35.068Z,18.76
2019-01-09T09:04:35.052Z,18.71
2019-01-09T09:05:35.041Z,18.76
2019-01-09T09:06:35.046Z,18.84
2019-01-09T09:07:35.057Z,18.74
2019-01-09T09:08:35.011Z,18.72
2019-01-09T09:09:34.993Z,18.79
2019-01-09T09:10:35.096Z,18.79
2019-01-09T09:11:35.031Z,18.82
2019-01-09T09:12:34.966Z,18.84
2019-01-09T09:13:34.968Z,18.87
2019-01-09T09:14:34.971Z,18.83
2019-01-09T09:15:34.949Z,18.83
2019-01-09T09:16:36.781Z,18.74
2019-01-09T09:17:35.099Z,18.90
2019-01-09T09:18:34.899Z,18.74
2019-01-09T09:19:34.894Z,18.86
2019-01-09T09:20:34.889Z,18.89
2019-01-09T09:21:34.870Z,18.83
2019-01-09T09:22:34.875Z,18.83
2019-01-09T09:23:34.843Z,18.79
2019-01-09T09:24:34.830Z,18.87
2019-01-09T09:25:34.820Z,18.84
2019-01-09T09:26:34.804Z,18.89
2019-01-09T09:27:34.880Z,18.83
2019-01-09T09:28:34.823Z,18.83
2019-01-09T09:29:34.860Z,18.83
2019-01-09T09:30:34.789Z,18.75
2019-01-09T09:31:34.756Z,18.86
2019-01-09T09:32:34.827Z,18.89
2019-01-09T09:33:34.751Z,18.90
2019-01-09T09:34:34.741Z,18.83
2019-01-09T09:35:34.721Z,18.90
2019-01-09T09:36:34.703Z,18.84
2019-01-09T09:37:34.699Z,18.79
2019-01-09T09:38:34.686Z,18.84
2019-01-09T09:39:34.677Z,18.74
2019-01-09T09:40:34.679Z,18.76
2019-01-09T09:41:34.823Z,18.76
2019-01-09T09:42:34.703Z,18.74
2019-01-09T09:43:34.620Z,18.74
2019-01-09T09:44:34.600Z,18.75
2019-01-09T09:45:34.622Z,18.74
2019-01-09T09:46:34.582Z,18.74
2019-01-09T09:47:34.597Z,18.74
2019-01-09T09:48:34.559Z,18.76
2019-01-09T09:49:34.545Z,18.84
2019-01-09T09:50:34.541Z,18.84
2019-01-09T09:51:34.546Z,18.75
2019-01-09T09:52:34.530Z,18.83
2019-01-09T09:53:34.512Z,18.79
2019-01-09T09:54:34.506Z,18.82
2019-01-09T09:55:34.493Z,18.87
2019-01-09T09:56:34.495Z,18.90
2019-01-09T09:57:34.477Z,18.82
2019-01-09T09:58:34.471Z,18.79
2019-01-09T09:59:34.421Z,18.84
2019-01-09T10:00:34.943Z,18.79
2019-01-09T10:01:34.413Z,18.89
2019-01-09T10:02:34.421Z,18.86
2019-01-09T10:03:34.447Z,18.83
2019-01-09T10:04:34.375Z,18.87
2019-01-09T10:05:34.425Z,18.79
2019-01-09T10:06:34.383Z,18.93
2019-01-09T10:07:34.361Z,18.89
2019-01-09T10:08:36.433Z,18.84
2019-01-09T10:09:34.507Z,18.86
2019-01-09T10:10:34.305Z,18.86
2019-01-09T10:11:34.329Z,18.86
2019-01-09T10:12:34.337Z,18.86
2019-01-09T10:13:34.329Z,18.93
2019-01-09T10:14:34.288Z,18.93
2019-01-09T10:15:34.312Z,18.93
2019-01-09T10:16:34.280Z,18.99
2019-01-09T10:17:34.246Z,18.89
2019-01-09T10:18:34.307Z,19.01
2019-01-09T10:19:34.221Z,18.91
2019-01-09T10:20:34.247Z,18.89
2019-01-09T10:21:34.254Z,18.94
2019-01-09T10:22:34.195Z,18.96
2019-01-09T10:23:34.244Z,18.93
2019-01-09T10:24:37.047Z,19.06
2019-01-09T10:25:34.194Z,18.94
2019-01-09T10:26:34.167Z,18.93
2019-01-09T10:27:34.160Z,18.97
2019-01-09T10:28:34.161Z,18.87
2019-01-09T10:29:34.192Z,18.90
2019-01-09T10:30:34.108Z,18.91
2019-01-09T10:31:34.160Z,18.91
2019-01-09T10:32:34.093Z,18.93
2019-01-09T10:33:34.070Z,18.91
2019-01-09T10:34:34.082Z,18.94
2019-01-09T10:35:34.045Z,18.99
2019-01-09T10:36:34.069Z,19.09
2019-01-09T10:37:34.029Z,19.05
2019-01-09T10:38:38.130Z,19.06
2019-01-09T10:39:34.115Z,19.13
2019-01-09T10:40:36.295Z,19.13
2019-01-09T10:41:34.013Z,19.23
2019-01-09T10:42:33.964Z,19.21
2019-01-09T10:43:34.020Z,19.16
2019-01-09T10:44:34.684Z,19.17
2019-01-09T10:45:33.919Z,19.13
2019-01-09T10:46:33.963Z,19.20
2019-01-09T10:47:33.964Z,19.23
2019-01-09T10:48:34.341Z,19.16
2019-01-09T10:49:37.116Z,19.27
2019-01-09T10:50:33.933Z,19.25
2019-01-09T10:51:33.901Z,19.16
2019-01-09T10:52:33.849Z,19.15
2019-01-09T10:53:33.905Z,19.17
2019-01-09T10:54:33.951Z,19.21
2019-01-09T10:55:34.052Z,19.16
2019-01-09T10:56:33.811Z,19.20
2019-01-09T10:57:33.820Z,19.20
2019-01-09T10:58:33.888Z,19.23
2019-01-09T10:59:33.838Z,19.24
2019-01-09T11:00:33.823Z,19.21
2019-01-09T11:01:33.793Z,19.23
2019-01-09T11:02:33.803Z,19.15
2019-01-09T11:03:33.821Z,19.16
2019-01-09T11:04:33.713Z,19.25
2019-01-09T11:05:33.730Z,19.25
2019-01-09T11:06:33.724Z,19.07
2019-01-09T11:07:33.706Z,19.23
2019-01-09T11:08:33.690Z,19.20
2019-01-09T11:09:33.760Z,19.21
2019-01-09T11:10:34.343Z,19.23
2019-01-09T11:11:33.678Z,19.15
2019-01-09T11:12:33.682Z,19.05
2019-01-09T11:13:33.690Z,19.17
2019-01-09T11:14:33.684Z,19.10
2019-01-09T11:15:33.596Z,19.15
2019-01-09T11:16:33.608Z,19.07
2019-01-09T11:17:36.916Z,19.06
2019-01-09T11:18:34.569Z,19.10
2019-01-09T11:19:33.548Z,19.12
2019-01-09T11:20:34.971Z,19.09
2019-01-09T11:21:33.964Z,19.09
2019-01-09T11:22:33.566Z,19.06
2019-01-09T11:23:33.525Z,19.13
2019-01-09T11:24:33.517Z,19.09
2019-01-09T11:25:33.523Z,19.01
2019-01-09T11:26:33.498Z,19.12
2019-01-09T11:27:33.482Z,19.06
2019-01-09T11:28:36.480Z,19.09
2019-01-09T11:29:33.467Z,19.10
2019-01-09T11:30:33.466Z,19.10
2019-01-09T11:31:34.180Z,19.09
2019-01-09T11:32:33.518Z,19.07
2019-01-09T11:33:33.431Z,19.07
2019-01-09T11:34:34.615Z,19.02
2019-01-09T11:35:33.403Z,19.06
2019-01-09T11:36:33.413Z,19.06
2019-01-09T11:37:33.353Z,19.02
2019-01-09T11:38:33.379Z,19.01
2019-01-09T11:39:33.352Z,18.96
2019-01-09T11:40:33.370Z,18.96
2019-01-09T11:41:33.307Z,18.96
2019-01-09T11:42:33.302Z,18.94
2019-01-09T11:43:33.349Z,18.93
2019-01-09T11:44:33.283Z,18.94
2019-01-09T11:45:33.475Z,18.94
2019-01-09T11:46:33.667Z,18.94
2019-01-09T11:47:34.161Z,18.96
2019-01-09T11:48:33.255Z,18.89
2019-01-09T11:49:33.330Z,18.93
2019-01-09T11:50:33.237Z,18.89
2019-01-09T11:51:33.224Z,18.96
2019-01-09T11:52:33.238Z,18.93
2019-01-09T11:53:33.322Z,18.96
2019-01-09T11:54:33.174Z,18.94
2019-01-09T11:55:33.163Z,18.94
2019-01-09T11:56:33.599Z,18.96
2019-01-09T11:57:33.145Z,18.90
2019-01-09T11:58:33.172Z,18.96
2019-01-09T11:59:33.125Z,18.91
2019-01-09T12:00:33.124Z,18.94
2019-01-09T12:01:33.119Z,18.91
2019-01-09T12:02:33.072Z,18.93
2019-01-09T12:03:33.200Z,18.91
2019-01-09T12:04:33.101Z,18.93
2019-01-09T12:05:33.077Z,18.89
2019-01-09T12:06:33.078Z,18.94
2019-01-09T12:07:33.036Z,18.94
2019-01-09T12:08:33.634Z,19.01
2019-01-09T12:09:35.610Z,18.96
2019-01-09T12:10:33.056Z,19.05
2019-01-09T12:11:33.047Z,19.01
2019-01-09T12:12:32.967Z,19.09
2019-01-09T12:13:33.011Z,19.02
2019-01-09T12:14:32.957Z,18.99
2019-01-09T12:15:32.974Z,19.10
2019-01-09T12:16:32.929Z,19.02
2019-01-09T12:17:32.956Z,19.05
2019-01-09T12:18:32.952Z,19.12
2019-01-09T12:19:32.928Z,19.06
2019-01-09T12:20:32.893Z,19.12
2019-01-09T12:21:32.886Z,19.10
2019-01-09T12:22:32.864Z,19.06
2019-01-09T12:23:32.852Z,19.17
2019-01-09T12:24:32.908Z,19.10
2019-01-09T12:25:32.897Z,19.23
2019-01-09T12:26:32.814Z,19.21
2019-01-09T12:27:32.809Z,19.17
2019-01-09T12:28:32.816Z,19.27
2019-01-09T12:29:32.825Z,19.13
2019-01-09T12:30:33.022Z,19.13
2019-01-09T12:31:32.772Z,19.17
2019-01-09T12:32:32.778Z,19.25
2019-01-09T12:33:32.753Z,19.17
2019-01-09T12:34:32.759Z,19.28
2019-01-09T12:35:32.809Z,19.32
2019-01-09T12:36:32.727Z,19.32
2019-01-09T12:37:32.699Z,19.32
2019-01-09T12:38:32.693Z,19.34
2019-01-09T12:39:32.692Z,19.24
2019-01-09T12:40:32.680Z,19.39
2019-01-09T12:41:32.680Z,19.40
2019-01-09T12:42:32.649Z,19.38
2019-01-09T12:43:32.867Z,19.39
2019-01-09T12:44:32.658Z,19.43
2019-01-09T12:45:32.610Z,19.40
2019-01-09T12:46:32.612Z,19.46
2019-01-09T12:47:32.616Z,19.45
2019-01-09T12:48:32.595Z,19.45
2019-01-09T12:49:32.607Z,19.45
2019-01-09T12:50:32.592Z,19.49
2019-01-09T12:51:32.558Z,19.39
2019-01-09T12:52:32.566Z,19.49